Time;durP1;ratioP1;P1;durP2;ratioP2;P2;SDS_P1;SDS_P2;PMS_P1;PMS_P2;Temp;Humidity;BMP_temperature;BMP_pressure;BME280_temperature;BME280_humidity;BME280_pressure;Samples;Min_cycle;Max_cycle;Signal;HPM_P1;HPM_P2
2021/07/10 00:00:35;;;;;;;18.92;12.35;;;;;;;13.68;100.00;100771.38;4993555;28;20026;-89
2021/07/10 00:03:27;;;;;;;17.40;12.38;;;;;;;13.66;100.00;100762.72;4992731;28;20018;-89
2021/07/10 00:05:56;;;;;;;18.92;11.43;;;;;;;13.61;100.00;100768.97;4990174;28;20030;-89
2021/07/10 00:08:21;;;;;;;20.58;11.95;;;;;;;13.64;100.00;100759.34;4990562;28;20022;-89
2021/07/10 00:10:47;;;;;;;17.30;11.90;;;;;;;13.61;100.00;100755.94;4988717;28;20029;-89
2021/07/10 00:13:12;;;;;;;18.13;11.52;;;;;;;13.62;100.00;100760.25;4989780;28;20409;-90
2021/07/10 00:15:41;;;;;;;18.42;12.73;;;;;;;13.59;100.00;100762.06;4989381;28;20034;-89
2021/07/10 00:18:12;;;;;;;24.98;12.90;;;;;;;13.58;100.00;100762.09;4987047;28;20026;-90
2021/07/10 00:20:49;;;;;;;17.77;12.23;;;;;;;13.56;100.00;100756.91;4986555;28;20026;-89
2021/07/10 00:23:15;;;;;;;16.73;12.30;;;;;;;13.54;100.00;100753.50;4989426;28;20499;-90
2021/07/10 00:25:55;;;;;;;19.23;12.32;;;;;;;13.57;100.00;100753.41;4988714;28;20038;-90
2021/07/10 00:28:24;;;;;;;19.67;12.60;;;;;;;13.53;100.00;100750.94;4988871;28;20034;-90
2021/07/10 00:30:49;;;;;;;20.38;12.02;;;;;;;13.50;100.00;100756.25;4986919;28;20462;-90
2021/07/10 00:33:15;;;;;;;16.08;12.23;;;;;;;13.50;100.00;100754.47;4985396;28;20166;-90
2021/07/10 00:35:55;;;;;;;17.75;12.27;;;;;;;13.48;100.00;100755.41;4984785;28;20022;-89
2021/07/10 00:38:21;;;;;;;19.95;12.68;;;;;;;13.48;100.00;100752.81;4987922;28;20096;-89
2021/07/10 00:40:46;;;;;;;17.55;12.13;;;;;;;13.49;100.00;100747.56;4987726;28;20019;-89
2021/07/10 00:43:12;;;;;;;22.10;12.90;;;;;;;13.42;100.00;100751.22;4986296;28;20023;-89
2021/07/10 00:45:52;;;;;;;17.73;11.77;;;;;;;13.38;100.00;100744.38;4984919;28;20121;-90
2021/07/10 00:48:35;;;;;;;17.10;12.15;;;;;;;13.37;100.00;100734.03;4986255;28;20027;-89
2021/07/10 00:51:01;;;;;;;19.13;12.13;;;;;;;13.38;100.00;100740.94;4987868;28;20050;-89
2021/07/10 00:53:26;;;;;;;19.35;12.52;;;;;;;13.33;100.00;100738.44;4989135;28;20042;-89
2021/07/10 00:55:52;;;;;;;18.92;12.27;;;;;;;13.29;100.00;100732.47;4990875;28;20022;-90
2021/07/10 00:58:24;;;;;;;19.92;12.60;;;;;;;13.35;100.00;100734.06;4987156;28;20026;-90
2021/07/10 01:00:55;;;;;;;19.58;13.05;;;;;;;13.32;100.00;100731.53;4988117;28;20033;-89
2021/07/10 01:03:21;;;;;;;18.92;12.02;;;;;;;13.27;100.00;100729.06;4987960;28;20030;-90
2021/07/10 01:05:49;;;;;;;18.50;12.85;;;;;;;13.25;100.00;100723.03;4990130;28;20441;-89
2021/07/10 01:08:15;;;;;;;19.25;12.13;;;;;;;13.20;100.00;100721.41;4989038;28;20030;-89
2021/07/10 01:10:44;;;;;;;15.27;11.40;;;;;;;13.19;100.00;100724.91;4983745;28;20026;-89
2021/07/10 01:13:53;;;;;;;21.45;12.73;;;;;;;13.12;100.00;100713.81;4982200;28;20057;-90
2021/07/10 01:16:18;;;;;;;19.33;12.60;;;;;;;13.09;100.00;100708.69;4986944;28;20033;-89
2021/07/10 01:18:44;;;;;;;18.77;11.27;;;;;;;13.07;100.00;100703.50;4988418;28;20019;-90
2021/07/10 01:21:10;;;;;;;18.08;11.43;;;;;;;13.06;100.00;100708.75;4988623;28;20050;-89
2021/07/10 01:23:51;;;;;;;18.27;12.00;;;;;;;13.03;100.00;100703.63;4988616;28;20062;-89
2021/07/10 01:26:26;;;;;;;18.75;12.10;;;;;;;13.02;100.00;100707.09;4987949;28;20030;-89
2021/07/10 01:28:59;;;;;;;21.35;11.93;;;;;;;13.02;100.00;100707.09;5003131;28;20026;-89
2021/07/10 01:34:16;;;;;;;18.13;11.68;;;;;;;13.04;100.00;100695.75;5003491;28;20398;-90
2021/07/10 01:36:46;;;;;;;18.15;11.70;;;;;;;12.96;100.00;100695.13;4988272;28;20026;-89
2021/07/10 01:39:11;;;;;;;21.17;11.93;;;;;;;13.00;100.00;100696.75;4988715;28;20027;-89
2021/07/10 01:41:46;;;;;;;14.68;11.25;;;;;;;13.06;100.00;100699.19;4988490;28;20114;-89
2021/07/10 01:44:11;;;;;;;20.13;11.50;;;;;;;13.04;100.00;100697.50;4990408;28;20114;-89
2021/07/10 01:46:37;;;;;;;24.25;11.35;;;;;;;13.05;100.00;100689.69;4987925;28;20066;-90
2021/07/10 01:49:09;;;;;;;19.83;12.45;;;;;;;13.10;100.00;100689.53;4987503;28;20114;-89
2021/07/10 01:51:35;;;;;;;17.83;12.80;;;;;;;13.13;100.00;100687.72;4987216;28;20027;-90
2021/07/10 01:54:02;;;;;;;16.35;11.23;;;;;;;13.08;100.00;100689.59;4988093;28;20049;-89
2021/07/10 01:56:27;;;;;;;21.88;12.70;;;;;;;13.05;100.00;100691.41;4987997;28;20026;-89
2021/07/10 01:58:54;;;;;;;20.17;12.45;;;;;;;13.08;100.00;100689.59;4987522;28;20053;-89
2021/07/10 02:01:22;;;;;;;16.52;11.65;;;;;;;13.08;100.00;100680.91;4987285;28;20038;-89
2021/07/10 02:03:48;;;;;;;18.63;12.10;;;;;;;13.05;100.00;100679.25;4987742;28;20041;-89
2021/07/10 02:06:14;;;;;;;21.90;11.82;;;;;;;13.05;100.00;100686.19;4990066;28;20030;-89
2021/07/10 02:08:40;;;;;;;20.13;12.05;;;;;;;13.07;100.00;100680.06;4988158;28;20044;-89
2021/07/10 02:11:06;;;;;;;19.30;11.75;;;;;;;13.06;100.00;100680.97;4987653;28;20018;-89
2021/07/10 02:14:04;;;;;;;24.42;14.23;;;;;;;12.97;100.00;100682.97;4984504;28;20081;-89
2021/07/10 02:16:28;;;;;;;17.50;12.45;;;;;;;13.04;100.00;100684.50;5001982;28;20085;-89
2021/07/10 02:18:53;;;;;;;16.77;12.35;;;;;;;13.00;100.00;100682.88;4986685;28;20029;-89
2021/07/10 02:21:19;;;;;;;17.10;12.68;;;;;;;13.03;100.00;100678.44;4985422;28;20022;-89
2021/07/10 02:23:45;;;;;;;18.95;12.63;;;;;;;13.00;100.00;100680.28;4983319;28;20034;-89
2021/07/10 02:26:24;;;;;;;17.42;11.88;;;;;;;13.02;100.00;100679.34;4986630;28;20026;-89
2021/07/10 02:29:05;;;;;;;19.65;12.82;;;;;;;12.93;100.00;100676.09;4987810;28;20062;-89
2021/07/10 02:31:30;;;;;;;18.83;11.75;;;;;;;13.02;100.00;100676.75;4986489;28;20030;-90
2021/07/10 02:34:05;;;;;;;17.35;12.13;;;;;;;12.94;100.00;100673.47;4984527;28;20033;-89
2021/07/10 02:36:51;;;;;;;19.70;12.95;;;;;;;12.98;100.00;100682.06;4985434;28;20030;-89
2021/07/10 02:39:17;;;;;;;21.05;12.43;;;;;;;12.94;100.00;100677.84;4985098;28;20033;-89
2021/07/10 02:41:42;;;;;;;17.95;13.07;;;;;;;12.96;100.00;100676.03;4982889;28;20022;-88
2021/07/10 02:44:08;;;;;;;24.55;13.75;;;;;;;12.94;100.00;100670.03;4984464;28;20445;-89
2021/07/10 02:46:39;;;;;;;19.58;12.52;;;;;;;12.96;100.00;100666.50;4985794;28;20417;-89
2021/07/10 02:49:57;;;;;;;19.45;13.15;;;;;;;12.94;100.00;100663.06;4987222;28;20049;-89
2021/07/10 02:52:23;;;;;;;17.92;12.68;;;;;;;12.90;100.00;100677.06;5004660;28;20054;-89
2021/07/10 02:54:49;;;;;;;19.90;12.68;;;;;;;12.92;100.00;100670.03;4986678;28;20030;-88
2021/07/10 02:57:15;;;;;;;21.23;12.55;;;;;;;12.90;100.00;100672.72;4987388;28;20037;-89
2021/07/10 02:59:56;;;;;;;20.75;13.25;;;;;;;12.93;100.00;100666.56;4987094;28;20070;-88
2021/07/10 03:02:21;;;;;;;21.65;13.57;;;;;;;12.89;100.00;100665.78;4986656;28;20026;-89
2021/07/10 03:04:55;;;;;;;21.80;13.43;;;;;;;12.93;100.00;100665.69;4986080;28;20105;-89
2021/07/10 03:07:20;;;;;;;21.02;13.93;;;;;;;12.93;100.00;100666.56;4986536;28;20026;-89
2021/07/10 03:09:49;;;;;;;20.05;14.10;;;;;;;12.90;100.00;100657.09;4986876;28;20041;-90
2021/07/10 03:12:26;;;;;;;22.38;13.85;;;;;;;12.90;100.00;100662.28;4985735;28;20042;-89
2021/07/10 03:15:01;;;;;;;19.75;14.20;;;;;;;12.92;100.00;100664.00;4986768;28;20018;-89
2021/07/10 03:17:29;;;;;;;19.67;13.00;;;;;;;12.87;100.00;100666.72;4987101;28;20030;-89
2021/07/10 03:19:55;;;;;;;20.40;14.35;;;;;;;12.96;100.00;100666.50;4986992;28;20019;-88
2021/07/10 03:22:20;;;;;;;21.20;12.25;;;;;;;12.98;100.00;100669.88;4984183;28;20022;-89
2021/07/10 03:24:55;;;;;;;19.33;13.60;;;;;;;12.93;100.00;100658.75;4984636;28;20045;-89
2021/07/10 03:27:21;;;;;;;21.25;13.82;;;;;;;13.01;100.00;100664.59;4985731;28;20053;-89
2021/07/10 03:30:00;;;;;;;23.05;14.30;;;;;;;13.01;100.00;100663.75;4983233;28;20022;-89
2021/07/10 03:32:25;;;;;;;19.77;13.80;;;;;;;12.97;100.00;100670.78;4985278;28;20022;-89
2021/07/10 03:34:51;;;;;;;22.98;13.88;;;;;;;12.98;100.00;100669.88;4986140;28;20026;-89
2021/07/10 03:37:16;;;;;;;22.02;14.10;;;;;;;13.02;100.00;100673.25;4984652;28;20133;-89
2021/07/10 03:39:42;;;;;;;19.63;13.13;;;;;;;13.07;100.00;100664.44;4984557;28;20022;-89
2021/07/10 03:42:10;;;;;;;22.38;13.93;;;;;;;13.08;100.00;100666.16;4984927;28;20018;-89
2021/07/10 03:44:36;;;;;;;18.05;13.38;;;;;;;13.11;100.00;100667.81;4982442;28;20053;-89
2021/07/10 03:47:02;;;;;;;26.77;14.75;;;;;;;13.10;100.00;100674.78;4983682;28;20027;-89
2021/07/10 03:49:28;;;;;;;20.42;13.75;;;;;;;13.11;100.00;100671.25;4985306;28;20041;-88
2021/07/10 03:51:56;;;;;;;21.55;14.52;;;;;;;13.16;100.00;100667.69;4985755;28;20482;-89
2021/07/10 03:54:24;;;;;;;19.33;14.27;;;;;;;13.14;100.00;100676.38;4986821;28;20113;-89
2021/07/10 03:56:59;;;;;;;21.55;14.02;;;;;;;13.18;100.00;100676.31;4987046;28;20121;-88
2021/07/10 03:59:45;;;;;;;19.80;14.07;;;;;;;13.24;100.00;100686.56;4987381;28;20037;-88
2021/07/10 04:02:16;;;;;;;21.38;12.95;;;;;;;13.20;100.00;100677.13;4986772;28;20113;-89
2021/07/10 04:05:11;;;;;;;22.42;13.75;;;;;;;13.24;100.00;100676.13;4988099;28;20022;-88
2021/07/10 04:08:09;;;;;;;18.98;12.48;;;;;;;13.29;100.00;100674.31;4919814;28;20047;-89
2021/07/10 04:10:47;;;;;;;19.13;13.35;;;;;;;13.27;100.00;100670.88;4988281;28;20123;-88
2021/07/10 04:13:12;;;;;;;18.40;12.85;;;;;;;13.24;100.00;100677.00;4982393;28;20121;-89
2021/07/10 04:15:38;;;;;;;19.35;13.13;;;;;;;13.32;100.00;100669.00;4986076;28;20050;-89
2021/07/10 04:18:04;;;;;;;17.13;12.52;;;;;;;13.28;100.00;100663.03;4987330;28;20069;-89
2021/07/10 04:20:29;;;;;;;19.27;12.20;;;;;;;13.37;100.00;100668.91;4988188;28;20029;-89
2021/07/10 04:22:55;;;;;;;19.02;11.93;;;;;;;13.37;100.00;100661.09;4987954;28;20050;-89
2021/07/10 04:25:20;;;;;;;20.92;11.98;;;;;;;13.46;100.00;100666.88;4987487;28;20037;-89
2021/07/10 04:27:47;;;;;;;16.70;10.80;;;;;;;13.47;100.00;100668.56;4988113;28;20026;-89
2021/07/10 04:30:15;;;;;;;21.13;11.63;;;;;;;13.57;100.00;100674.38;4989166;28;20050;-88
2021/07/10 04:32:40;;;;;;;18.05;11.32;;;;;;;13.49;100.00;100678.97;4987968;28;20030;-89
2021/07/10 04:35:21;;;;;;;18.95;11.93;;;;;;;13.49;100.00;100677.22;4987668;28;20037;-89
2021/07/10 04:37:47;;;;;;;14.93;10.80;;;;;;;13.55;100.00;100682.25;4989179;28;20026;-89
2021/07/10 04:40:16;;;;;;;16.10;10.88;;;;;;;13.62;100.00;100676.88;4988956;28;20046;-89
2021/07/10 04:42:45;;;;;;;14.38;10.55;;;;;;;13.83;100.00;100678.84;4990471;28;20467;-89
2021/07/10 04:45:12;;;;;;;16.23;10.48;;;;;;;13.87;100.00;100675.25;4987092;28;20022;-88
2021/07/10 04:47:37;;;;;;;14.77;10.77;;;;;;;13.97;100.00;100679.25;4987005;28;20034;-89
2021/07/10 04:50:09;;;;;;;16.70;10.80;;;;;;;14.15;100.00;100682.22;4986547;28;20058;-89
2021/07/10 04:55:05;;;;;;;14.65;10.00;;;;;;;14.23;100.00;100675.88;4959097;29;20039;-88
2021/07/10 04:57:31;;;;;;;14.90;10.02;;;;;;;14.11;100.00;100675.41;4942358;29;20054;-88
2021/07/10 04:59:56;;;;;;;14.10;10.10;;;;;;;14.02;100.00;100669.56;4942854;29;20019;-88
2021/07/10 05:02:21;;;;;;;12.85;9.77;;;;;;;14.16;100.00;100668.28;4942756;29;20023;-88
2021/07/10 05:04:47;;;;;;;14.82;10.32;;;;;;;14.20;100.00;100668.13;4943054;29;20476;-88
2021/07/10 05:07:12;;;;;;;12.70;9.35;;;;;;;14.21;100.00;100667.22;4942935;29;20089;-88
2021/07/10 05:09:37;;;;;;;16.85;10.00;;;;;;;14.30;100.00;100660.88;4942726;29;20038;-88
2021/07/10 05:12:03;;;;;;;16.10;10.27;;;;;;;14.31;100.00;100670.41;4943039;29;20059;-88
2021/07/10 05:14:28;;;;;;;13.95;10.70;;;;;;;14.24;100.00;100671.50;4961011;29;20033;-88
2021/07/10 05:16:53;;;;;;;18.20;10.32;;;;;;;14.17;100.00;100665.63;4947000;29;20062;-88
2021/07/10 05:19:19;;;;;;;13.35;9.73;;;;;;;14.19;100.00;100662.94;4941890;29;20039;-88
2021/07/10 05:21:44;;;;;;;13.82;9.98;;;;;;;14.23;100.00;100675.88;4942327;29;20031;-88
2021/07/10 05:24:10;;;;;;;14.38;9.48;;;;;;;14.38;100.00;100671.94;4942075;29;20106;-88
2021/07/10 05:26:35;;;;;;;16.60;10.25;;;;;;;14.39;100.00;100660.56;4941781;29;20050;-88
2021/07/10 05:29:00;;;;;;;16.60;9.90;;;;;;;14.60;100.00;100664.28;4941927;29;20019;-88
2021/07/10 05:31:26;;;;;;;14.40;10.27;;;;;;;14.54;100.00;100658.41;4941688;29;20068;-88
2021/07/10 05:33:51;;;;;;;16.45;10.15;;;;;;;14.62;100.00;100656.38;4942172;29;20035;-88
2021/07/10 05:36:17;;;;;;;14.63;9.98;;;;;;;14.67;100.00;100664.91;4942242;29;20047;-88
2021/07/10 05:38:42;;;;;;;13.88;9.80;;;;;;;14.72;100.00;100656.03;4941824;29;20447;-88
2021/07/10 05:41:07;;;;;;;13.48;9.05;;;;;;;14.91;100.00;100648.41;4941441;29;20463;-88
2021/07/10 05:43:33;;;;;;;15.45;9.63;;;;;;;14.87;100.00;100649.44;4958874;29;20106;-88
2021/07/10 05:45:58;;;;;;;13.45;9.65;;;;;;;14.94;100.00;100648.31;4941911;29;20027;-88
2021/07/10 05:48:23;;;;;;;13.82;9.98;;;;;;;15.09;100.00;100657.38;4941600;29;20034;-88
2021/07/10 05:50:49;;;;;;;12.93;8.27;;;;;;;14.99;100.00;100665.56;4958424;29;20027;-87
2021/07/10 05:53:15;;;;;;;19.33;9.10;;;;;;;15.23;100.00;100658.63;4941262;29;20458;-87
2021/07/10 05:55:41;;;;;;;15.85;9.00;;;;;;;15.23;100.00;100643.81;4941114;29;20027;-88
2021/07/10 05:58:06;;;;;;;11.98;7.78;;;;;;;15.58;100.00;100652.97;4958238;29;20042;-88
2021/07/10 06:00:32;;;;;;;11.05;8.07;;;;;;;15.97;100.00;100646.31;4941067;29;20019;-88
2021/07/10 06:02:59;;;;;;;14.68;8.63;;;;;;;15.82;100.00;100653.81;4940272;29;20062;-87
2021/07/10 06:05:25;;;;;;;11.07;7.55;;;;;;;15.83;100.00;100655.53;4941652;29;20051;-87
2021/07/10 06:07:51;;;;;;;12.68;7.65;;;;;;;16.02;100.00;100654.84;4940728;29;20027;-87
2021/07/10 06:10:17;;;;;;;11.10;7.88;;;;;;;16.07;100.00;100658.09;4940852;29;20023;-87
2021/07/10 06:12:43;;;;;;;9.02;6.57;;;;;;;16.03;100.00;100667.00;4941447;29;20082;-88
2021/07/10 06:15:10;;;;;;;12.85;7.50;;;;;;;15.89;100.00;100664.94;4957971;29;20109;-87
2021/07/10 06:17:36;;;;;;;9.68;7.07;;;;;;;15.98;100.00;100668.94;4940532;29;20031;-88
2021/07/10 06:20:04;;;;;;;11.48;7.75;;;;;;;16.03;100.00;100675.69;4940297;29;20494;-88
2021/07/10 06:22:30;;;;;;;14.32;6.60;;;;;;;16.22;100.00;100678.44;4940389;29;20084;-88
2021/07/10 06:24:55;;;;;;;11.00;7.00;;;;;;;17.40;100.00;100672.66;4940539;29;20035;-88
2021/07/10 06:27:20;;;;;;;11.80;6.53;;;;;;;18.11;100.00;100670.28;4941007;29;20103;-87
2021/07/10 06:29:45;;;;;;;9.98;6.22;;;;;;;18.72;100.00;100661.13;4942200;29;20031;-87
2021/07/10 06:32:11;;;;;;;10.20;6.05;;;;;;;18.89;100.00;100662.97;4940732;29;20110;-87
2021/07/10 06:34:37;;;;;;;10.55;6.32;;;;;;;19.11;100.00;100667.97;4940102;29;20132;-87
2021/07/10 06:37:03;;;;;;;12.32;6.93;;;;;;;18.89;100.00;100678.72;4940168;29;20377;-86
2021/07/10 06:39:28;;;;;;;10.73;6.18;;;;;;;17.54;100.00;100687.75;4940123;29;20475;-86
2021/07/10 06:41:53;;;;;;;9.95;5.93;;;;;;;17.79;100.00;100685.75;4957633;29;20151;-86
2021/07/10 06:44:19;;;;;;;11.52;5.78;;;;;;;17.85;100.00;100685.44;4958404;29;20089;-87
2021/07/10 06:46:44;;;;;;;10.88;5.85;;;;;;;17.37;100.00;100689.38;4939896;29;20026;-85
2021/07/10 06:49:09;;;;;;;9.63;6.00;;;;;;;17.38;100.00;100690.22;4957922;29;20480;-85
2021/07/10 06:51:35;;;;;;;8.75;6.00;;;;;;;17.75;100.00;100686.78;4956919;29;20023;-86
2021/07/10 06:54:02;;;;;;;9.50;5.90;;;;;;;17.47;100.00;100684.56;4957964;29;20516;-86
2021/07/10 06:56:27;;;;;;;10.35;5.47;;;;;;;17.74;100.00;100686.88;4959487;29;20031;-85
2021/07/10 06:58:52;;;;;;;10.68;5.85;;;;;;;18.22;100.00;100683.72;4943857;29;20452;-85
2021/07/10 07:01:17;;;;;;;9.25;5.28;;;;;;;18.51;100.00;100694.59;4962107;29;20051;-86
2021/07/10 07:03:43;;;;;;;8.82;5.95;;;;;;;18.22;100.00;100693.38;4947275;29;20023;-86
2021/07/10 07:06:08;;;;;;;8.73;5.80;;;;;;;17.69;100.00;100697.56;4959808;29;20035;-86
2021/07/10 07:08:33;;;;;;;10.40;5.53;;;;;;;17.71;100.00;100693.09;4940780;29;20023;-85
2021/07/10 07:10:59;;;;;;;12.38;6.22;;;;;;;17.54;100.00;100703.50;4941138;29;20027;-85
2021/07/10 07:13:24;;;;;;;10.35;6.10;;;;;;;18.06;100.00;100706.38;4958085;28;20027;-85
2021/07/10 07:15:49;;;;;;;8.50;5.40;;;;;;;18.80;100.00;100708.94;4962412;29;20083;-85
2021/07/10 07:18:15;;;;;;;9.23;5.55;;;;;;;19.26;99.36;100710.06;4960691;29;20503;-86
2021/07/10 07:20:42;;;;;;;9.18;5.40;;;;;;;19.77;95.69;100707.44;4957201;29;20019;-85
2021/07/10 07:23:08;;;;;;;12.13;4.97;;;;;;;19.53;97.54;100701.69;4939693;29;20031;-87
2021/07/10 07:25:34;;;;;;;9.30;5.35;;;;;;;20.76;88.42;100714.19;4957142;29;20034;-85
2021/07/10 07:28:00;;;;;;;7.95;4.78;;;;;;;21.15;85.98;100712.75;4956908;29;20031;-86
2021/07/10 07:30:25;;;;;;;8.93;4.22;;;;;;;21.46;85.81;100722.38;4939134;29;20047;-86
2021/07/10 07:32:51;;;;;;;7.55;5.00;;;;;;;19.76;95.70;100724.16;4939248;29;20498;-86
2021/07/10 07:35:16;;;;;;;10.48;5.57;;;;;;;18.47;100.00;100724.56;4940910;29;20471;-86
2021/07/10 07:37:42;;;;;;;8.85;5.28;;;;;;;18.11;100.00;100728.88;4940515;29;20023;-86
2021/07/10 07:40:10;;;;;;;12.20;5.82;;;;;;;17.58;100.00;100726.91;4944268;29;20034;-86
2021/07/10 07:42:35;;;;;;;8.18;5.53;;;;;;;17.63;100.00;100731.94;4959456;29;20027;-85
2021/07/10 07:45:01;;;;;;;7.78;5.45;;;;;;;17.39;100.00;100721.59;4958023;29;20050;-86
2021/07/10 07:47:26;;;;;;;10.15;5.13;;;;;;;17.78;100.00;100717.31;4958062;29;20031;-85
2021/07/10 07:49:51;;;;;;;9.40;5.65;;;;;;;17.42;100.00;100718.00;4941881;29;20034;-87
2021/07/10 07:52:17;;;;;;;9.52;5.57;;;;;;;17.96;100.00;100721.72;4939076;29;20027;-87
2021/07/10 07:54:43;;;;;;;8.20;5.60;;;;;;;18.58;100.00;100720.50;4939605;29;20027;-87
2021/07/10 07:57:08;;;;;;;9.90;4.65;;;;;;;20.12;96.26;100720.44;4939858;29;20064;-86
2021/07/10 07:59:33;;;;;;;7.93;5.07;;;;;;;20.48;93.31;100719.34;4940299;29;20029;-87
2021/07/10 08:01:59;;;;;;;7.53;4.57;;;;;;;20.39;94.58;100718.91;4943952;29;20020;-87
2021/07/10 08:04:25;;;;;;;9.52;5.03;;;;;;;20.30;91.94;100727.31;4955964;29;20095;-87
2021/07/10 08:06:50;;;;;;;10.73;5.05;;;;;;;19.90;92.14;100726.06;4939042;29;20023;-87
2021/07/10 08:09:15;;;;;;;7.68;4.88;;;;;;;19.46;93.08;100724.84;4939311;29;20023;-87
2021/07/10 08:11:41;;;;;;;8.88;4.47;;;;;;;19.65;93.21;100726.53;4938616;29;20023;-86
2021/07/10 08:14:06;;;;;;;8.77;4.72;;;;;;;20.27;87.73;100730.13;4938738;29;20424;-86
2021/07/10 08:16:32;;;;;;;7.65;4.57;;;;;;;19.47;91.01;100723.06;4956033;29;20023;-86
2021/07/10 08:18:58;;;;;;;10.63;5.40;;;;;;;19.33;95.54;100723.75;4956473;29;20039;-87
2021/07/10 08:21:27;;;;;;;6.10;4.00;;;;;;;19.10;92.16;100724.97;4942352;29;20110;-89
2021/07/10 08:23:53;;;;;;;8.55;4.82;;;;;;;18.37;97.42;100716.28;4939709;29;20030;-88
2021/07/10 08:26:19;;;;;;;8.07;4.65;;;;;;;18.39;96.46;100728.41;4938481;29;20026;-88
2021/07/10 08:28:44;;;;;;;8.90;4.90;;;;;;;18.32;100.00;100726.16;4941120;29;20450;-88
2021/07/10 08:31:09;;;;;;;8.63;4.45;;;;;;;18.08;100.00;100722.91;4940486;29;20391;-87
2021/07/10 08:33:35;;;;;;;9.02;5.05;;;;;;;18.20;99.42;100729.38;4959736;29;20035;-88
2021/07/10 08:36:00;;;;;;;9.65;5.00;;;;;;;18.29;97.50;100728.94;4940434;29;20115;-87
2021/07/10 11:02:28;;;;;;;4.68;2.55;;;;;;;22.09;62.27;100710.50;4861575;29;20077;-86
2021/07/10 11:04:57;;;;;;;6.90;2.63;;;;;;;21.52;64.20;100711.44;4861838;29;20120;-86
2021/07/10 11:08:00;;;;;;;4.30;2.50;;;;;;;23.59;58.71;100712.88;4862400;29;20521;-86
2021/07/10 11:10:31;;;;;;;5.90;2.47;;;;;;;25.82;54.92;100708.59;4843058;29;20171;-86
2021/07/10 11:13:04;;;;;;;6.40;2.63;;;;;;;23.66;56.96;100701.72;4842902;29;20510;-86
2021/07/10 11:16:13;;;;;;;;;;;;;;;;;;;;;
2021/07/10 11:18:53;;;;;;;7.32;2.45;;;;;;;23.61;57.43;100700.34;4843529;29;20034;-86
2021/07/10 11:21:38;;;;;;;4.65;2.10;;;;;;;24.58;55.11;100703.06;4842983;29;20025;-87
2021/07/10 11:24:22;;;;;;;5.07;2.38;;;;;;;24.90;52.24;100712.19;4842433;29;20034;-87
2021/07/10 11:26:57;;;;;;;6.40;2.35;;;;;;;24.12;55.34;100697.63;4842573;29;20034;-86
2021/07/10 11:29:30;;;;;;;5.43;2.55;;;;;;;25.47;50.22;100701.59;4842268;29;20498;-87
2021/07/10 11:32:55;;;;;;;4.45;2.30;;;;;;;23.46;57.34;100702.31;4842265;29;20041;-86
2021/07/10 11:35:12;;;;;;;4.78;2.00;;;;;;;23.98;55.72;100698.59;4846148;29;20110;-85
2021/07/10 11:40:48;;;;;;;5.38;2.50;;;;;;;26.02;47.86;100695.53;4825656;29;20030;-85
2021/07/10 11:43:37;;;;;;;4.78;2.45;;;;;;;22.86;55.48;100697.56;4842156;29;20040;-85
2021/07/10 11:46:09;;;;;;;5.82;2.50;;;;;;;22.50;59.64;100694.63;4843357;29;20116;-85
2021/07/10 11:48:53;;;;;;;;;;;;;;;;;;;;;
2021/07/10 11:51:19;;;;;;;5.03;2.80;;;;;;;21.91;61.81;100695.81;4844527;29;20037;-84
2021/07/10 11:53:44;;;;;;;4.40;2.42;;;;;;;21.72;61.63;100690.88;4841845;29;20109;-85
2021/07/10 11:56:10;;;;;;;6.00;2.67;;;;;;;24.04;56.62;100692.84;4841836;29;20120;-85
2021/07/10 11:58:40;;;;;;;7.05;2.40;;;;;;;25.40;52.10;100695.06;4842335;29;20057;-85
2021/07/10 12:01:07;;;;;;;5.50;2.60;;;;;;;25.48;53.70;100697.94;4841104;29;20419;-85
2021/07/10 12:03:32;;;;;;;5.60;2.42;;;;;;;26.07;48.26;100688.00;4842107;29;20026;-85
2021/07/10 12:05:58;;;;;;;4.53;2.25;;;;;;;25.06;52.33;100687.97;4843191;29;20026;-85
2021/07/10 12:08:24;;;;;;;5.32;2.30;;;;;;;25.49;48.26;100696.13;4843097;29;20444;-85
2021/07/10 12:10:52;;;;;;;4.90;2.42;;;;;;;24.84;50.13;100700.22;4841865;29;20113;-84
2021/07/10 12:13:21;;;;;;;4.70;2.20;;;;;;;24.37;52.44;100694.00;4843402;29;20062;-84
2021/07/10 12:16:03;;;;;;;5.30;2.33;;;;;;;24.49;51.26;100695.78;4842891;29;20026;-84
2021/07/10 12:18:35;;;;;;;7.18;2.55;;;;;;;25.41;50.32;100691.44;4842532;29;20112;-84
2021/07/10 12:21:08;;;;;;;5.95;2.30;;;;;;;25.76;49.52;100674.50;4841678;29;20022;-84
2021/07/10 12:23:36;;;;;;;5.70;2.80;;;;;;;26.15;46.52;100691.75;4842195;29;20033;-84
2021/07/10 12:26:08;;;;;;;5.45;2.60;;;;;;;24.41;49.22;100690.16;4842524;29;20565;-84
2021/07/10 12:28:36;;;;;;;5.85;2.58;;;;;;;23.32;53.90;100674.13;4843762;29;20041;-84
2021/07/10 12:31:14;;;;;;;5.97;2.80;;;;;;;25.41;47.76;100669.34;4845055;29;20034;-85
2021/07/10 12:34:39;;;;;;;5.35;2.60;;;;;;;25.89;48.55;100667.28;4848285;29;20034;-85
2021/07/10 12:42:48;;;;;;;;;;;;;;;;;;;;;
2021/07/10 12:45:13;;;;;;;8.57;3.45;;;;;;;24.73;52.12;100676.34;4862993;29;20112;-85
2021/07/10 12:53:04;;;;;;;6.80;2.72;;;;;;;24.75;49.16;100671.75;4859366;29;20053;-85
2021/07/10 12:55:38;;;;;;;5.38;2.63;;;;;;;24.12;50.78;100663.16;4860133;29;20065;-85
2021/07/10 12:58:07;;;;;;;6.97;2.92;;;;;;;23.51;50.80;100670.19;4859895;29;20037;-86
2021/07/10 13:01:04;;;;;;;5.57;2.90;;;;;;;22.91;52.13;100669.88;4860986;29;20025;-85
2021/07/10 13:03:29;;;;;;;5.22;2.67;;;;;;;24.12;50.52;100674.59;4850710;29;20566;-86
2021/07/10 13:06:19;;;;;;;4.95;2.80;;;;;;;25.01;50.37;100667.97;4859685;29;20078;-86
2021/07/10 13:09:14;;;;;;;6.70;2.70;;;;;;;24.55;51.63;100665.31;4860102;29;20033;-86
2021/07/10 13:11:51;;;;;;;6.25;3.40;;;;;;;24.96;50.53;100659.50;4860020;29;20446;-86
2021/07/10 13:14:23;;;;;;;5.97;3.03;;;;;;;25.00;49.65;100668.94;4863345;29;20040;-84
2021/07/10 13:17:15;;;;;;;5.68;2.85;;;;;;;25.60;46.42;100664.25;4863738;29;20026;-84
2021/07/10 13:19:43;;;;;;;5.10;2.90;;;;;;;25.33;47.11;100661.97;4863692;29;20029;-84
2021/07/10 13:22:09;;;;;;;6.80;3.30;;;;;;;25.02;48.83;100656.38;4864099;29;20029;-84
2021/07/10 13:24:34;;;;;;;7.45;3.17;;;;;;;24.01;50.58;100663.09;4864401;29;20036;-84
2021/07/10 13:27:05;;;;;;;5.85;2.58;;;;;;;23.32;55.70;100658.25;4864958;29;20033;-84
2021/07/10 13:29:35;;;;;;;7.63;2.85;;;;;;;22.78;56.09;100662.84;4864330;29;20117;-84
2021/07/10 13:32:05;;;;;;;6.28;3.03;;;;;;;22.48;57.19;100656.03;4863962;29;20410;-82
2021/07/10 13:34:38;;;;;;;7.93;2.95;;;;;;;22.62;56.34;100657.75;4863925;29;20113;-83
2021/07/10 13:37:07;;;;;;;5.72;2.88;;;;;;;22.15;61.18;100659.06;4864169;29;20155;-84
2021/07/10 13:39:42;;;;;;;6.00;2.97;;;;;;;21.62;60.49;100660.72;4865046;29;20030;-83
2021/07/10 13:42:20;;;;;;;4.63;2.55;;;;;;;23.43;54.40;100649.56;4864056;29;20418;-84
2021/07/10 13:44:47;;;;;;;7.18;2.78;;;;;;;24.37;52.21;100656.88;4864507;29;20029;-83
2021/07/10 13:47:30;;;;;;;5.45;3.10;;;;;;;24.76;49.54;100647.78;4864735;29;20025;-83
2021/07/10 13:50:04;;;;;;;6.82;3.40;;;;;;;24.58;50.89;100650.00;4864694;29;20478;-83
2021/07/10 13:52:38;;;;;;;6.35;3.50;;;;;;;24.33;51.19;100650.13;4865545;29;20037;-83
2021/07/10 13:55:08;;;;;;;7.00;3.60;;;;;;;23.11;54.32;100644.72;4863701;29;20057;-83
2021/07/10 13:57:50;;;;;;;7.97;3.05;;;;;;;23.78;54.56;100647.06;4863290;29;20065;-85
2021/07/10 14:00:40;;;;;;;6.68;2.80;;;;;;;24.53;50.94;100656.63;4863212;29;20045;-84
2021/07/10 14:03:08;;;;;;;7.90;3.25;;;;;;;24.45;51.76;100653.72;4863045;29;20029;-83
2021/07/10 14:05:47;;;;;;;6.13;3.33;;;;;;;24.53;53.10;100649.50;4865140;29;20055;-83
2021/07/10 14:08:26;;;;;;;7.53;2.90;;;;;;;24.87;52.58;100638.97;4863861;29;20037;-84
2021/07/10 14:10:56;;;;;;;7.95;3.90;;;;;;;24.19;51.71;100642.34;4864087;29;20040;-84